Time;durP1;ratioP1;P1;durP2;ratioP2;P2;SDS_P1;SDS_P2;PMS_P1;PMS_P2;Temp;Humidity;BMP_temperature;BMP_pressure;BME280_temperature;BME280_humidity;BME280_pressure;Samples;Min_cycle;Max_cycle;Signal;HPM_P1;HPM_P2
2023/06/07 00:01:42;;;;;;;6.03;3.47;;;18.50;99.90;;;;;;5064038;28;20678;-76
2023/06/07 00:04:12;;;;;;;5.83;3.20;;;18.50;99.90;;;;;;5074396;28;20212;-76
2023/06/07 00:06:39;;;;;;;5.27;3.30;;;18.50;99.90;;;;;;5036198;28;20679;-76
2023/06/07 00:09:09;;;;;;;3.77;3.37;;;18.50;99.90;;;;;;5060130;28;20186;-75
2023/06/07 00:11:36;;;;;;;5.77;3.23;;;18.50;99.90;;;;;;5059553;28;20209;-76
2023/06/07 00:14:04;;;;;;;8.17;3.17;;;18.60;99.90;;;;;;5045979;28;20185;-76
2023/06/07 00:16:32;;;;;;;5.47;3.27;;;18.60;99.90;;;;;;5076974;28;20756;-76
2023/06/07 00:19:01;;;;;;;6.27;3.30;;;18.60;99.90;;;;;;5080585;28;20181;-76
2023/06/07 00:21:28;;;;;;;7.00;3.33;;;18.60;99.90;;;;;;5059573;28;20214;-76
2023/06/07 00:23:54;;;;;;;7.73;2.60;;;18.50;99.90;;;;;;5062191;28;20602;-76
2023/06/07 00:26:20;;;;;;;10.37;3.67;;;18.50;99.90;;;;;;5074548;28;20197;-76
2023/06/07 00:28:46;;;;;;;4.83;3.00;;;18.40;99.90;;;;;;5044590;28;20232;-76
2023/06/07 00:31:12;;;;;;;4.97;3.10;;;18.50;99.90;;;;;;5058002;28;20673;-74
2023/06/07 00:33:39;;;;;;;3.90;2.50;;;18.50;99.90;;;;;;5056793;28;20186;-74
2023/06/07 00:36:06;;;;;;;5.57;2.97;;;18.50;99.90;;;;;;5076160;28;20174;-73
2023/06/07 00:38:32;;;;;;;7.70;3.10;;;18.50;99.90;;;;;;5089188;27;20240;-74
2023/06/07 00:40:58;;;;;;;5.70;2.47;;;18.50;99.90;;;;;;5075075;28;20585;-74
2023/06/07 00:43:25;;;;;;;3.03;2.27;;;18.50;99.90;;;;;;5061811;28;20189;-75
2023/06/07 00:45:51;;;;;;;4.93;2.53;;;18.50;99.90;;;;;;5066742;28;20876;-76
2023/06/07 00:48:18;;;;;;;5.17;3.17;;;18.40;99.90;;;;;;5074801;28;20201;-76
2023/06/07 00:50:46;;;;;;;5.80;2.63;;;18.50;99.90;;;;;;5075750;28;20202;-76
2023/06/07 00:53:12;;;;;;;4.77;2.33;;;18.40;99.90;;;;;;5075526;28;20206;-76
2023/06/07 00:55:39;;;;;;;4.57;2.37;;;18.50;99.90;;;;;;5075852;28;20185;-76
2023/06/07 00:58:06;;;;;;;6.17;2.60;;;18.50;99.90;;;;;;5060303;28;20190;-76
2023/06/07 01:00:33;;;;;;;3.03;2.30;;;18.50;99.90;;;;;;5089485;28;20273;-76
2023/06/07 01:02:59;;;;;;;3.33;2.07;;;18.50;99.90;;;;;;5089442;28;20209;-76
2023/06/07 01:05:26;;;;;;;3.67;2.13;;;18.50;99.90;;;;;;5046077;28;20197;-76
2023/06/07 01:07:54;;;;;;;2.87;1.83;;;18.40;99.90;;;;;;5046529;28;20210;-76
2023/06/07 01:10:21;;;;;;;2.20;1.77;;;18.50;99.90;;;;;;5062813;28;20178;-76
2023/06/07 01:12:53;;;;;;;4.23;1.80;;;18.50;99.90;;;;;;5065149;28;20190;-77
2023/06/07 01:15:21;;;;;;;2.80;1.60;;;18.50;99.90;;;;;;5064759;28;20186;-76
2023/06/07 01:17:49;;;;;;;3.60;1.73;;;18.50;99.90;;;;;;5095214;27;20857;-76
2023/06/07 01:20:22;;;;;;;4.17;1.80;;;18.50;99.90;;;;;;5078781;28;20258;-77
2023/06/07 01:22:53;;;;;;;1.50;1.30;;;18.40;99.90;;;;;;5083577;28;21329;-76
2023/06/07 01:25:20;;;;;;;2.37;1.50;;;18.40;99.90;;;;;;5080011;28;20190;-76
2023/06/07 01:27:52;;;;;;;3.63;1.50;;;18.40;99.90;;;;;;5079641;28;20237;-76
2023/06/07 01:30:21;;;;;;;2.53;1.40;;;18.40;99.90;;;;;;5080634;28;20182;-77
2023/06/07 01:32:52;;;;;;;2.70;1.30;;;18.50;99.90;;;;;;5066635;28;20264;-76
2023/06/07 01:35:20;;;;;;;2.10;1.40;;;18.50;99.90;;;;;;5052828;28;20700;-74
2023/06/07 01:37:48;;;;;;;3.30;1.30;;;18.60;99.90;;;;;;5080206;28;20193;-74
2023/06/07 01:40:16;;;;;;;2.07;1.17;;;18.60;99.90;;;;;;5048427;28;20215;-75
2023/06/07 01:42:43;;;;;;;4.13;1.30;;;18.60;99.90;;;;;;5080853;28;20315;-76
2023/06/07 01:45:10;;;;;;;1.93;1.20;;;18.70;99.90;;;;;;5080206;28;20235;-76
2023/06/07 01:47:37;;;;;;;1.20;1.10;;;18.70;99.90;;;;;;5084935;28;20221;-75
2023/06/07 01:50:05;;;;;;;3.60;1.30;;;18.70;99.90;;;;;;5084105;28;20318;-75
2023/06/07 01:52:31;;;;;;;1.70;1.10;;;18.70;99.90;;;;;;5062259;28;20271;-75
2023/06/07 01:54:58;;;;;;;1.87;1.10;;;18.70;99.90;;;;;;5082973;28;20233;-75
2023/06/07 01:57:54;;;;;;;5.13;1.30;;;18.70;99.90;;;;;;5081278;28;20719;-76
2023/06/07 02:00:57;;;;;;;2.77;1.40;;;18.70;99.90;;;;;;5080101;27;20194;-77
2023/06/07 02:03:54;;;;;;;2.83;1.50;;;18.70;99.90;;;;;;5081139;28;20198;-77
2023/06/07 02:06:32;;;;;;;3.20;1.37;;;18.60;99.90;;;;;;5068142;28;20244;-77
2023/06/07 02:09:09;;;;;;;4.23;1.60;;;18.50;99.90;;;;;;5061604;28;20236;-77
2023/06/07 02:11:39;;;;;;;2.63;1.47;;;18.40;99.90;;;;;;5059829;28;20190;-77
2023/06/07 02:14:07;;;;;;;2.00;1.27;;;18.40;99.90;;;;;;5095072;27;20338;-76
2023/06/07 02:16:35;;;;;;;4.67;1.90;;;18.40;99.90;;;;;;5081180;28;20278;-76
2023/06/07 02:19:06;;;;;;;3.43;1.37;;;18.30;99.90;;;;;;5083662;28;20194;-77
2023/06/07 02:21:39;;;;;;;2.60;1.70;;;18.30;99.90;;;;;;5045155;28;20902;-77
2023/06/07 02:24:06;;;;;;;2.90;1.67;;;18.30;99.90;;;;;;5044453;28;20190;-77
2023/06/07 02:26:33;;;;;;;3.20;1.80;;;18.30;99.90;;;;;;5078545;28;20190;-77
2023/06/07 02:29:03;;;;;;;4.93;1.80;;;18.20;99.90;;;;;;5062058;28;20183;-77
2023/06/07 02:31:29;;;;;;;4.57;1.53;;;18.20;99.90;;;;;;5094321;27;20943;-77
2023/06/07 02:33:55;;;;;;;3.37;1.80;;;18.10;99.90;;;;;;5081031;28;20201;-77
2023/06/07 02:36:22;;;;;;;2.53;1.80;;;18.20;99.90;;;;;;5067617;28;20188;-77
2023/06/07 02:38:49;;;;;;;2.40;1.83;;;18.20;99.90;;;;;;5080303;28;20717;-76
2023/06/07 02:41:16;;;;;;;2.70;1.60;;;18.10;99.90;;;;;;5058458;28;20289;-77
2023/06/07 02:43:43;;;;;;;5.23;1.63;;;18.10;99.90;;;;;;5061717;28;20332;-77
2023/06/07 02:46:13;;;;;;;2.43;1.67;;;18.10;99.90;;;;;;5058302;28;20729;-77
2023/06/07 02:48:40;;;;;;;5.80;1.70;;;18.00;99.90;;;;;;5059498;28;20544;-77
2023/06/07 02:51:07;;;;;;;3.57;1.80;;;18.00;99.90;;;;;;5079823;28;20197;-77
2023/06/07 02:53:33;;;;;;;3.57;1.80;;;18.00;99.90;;;;;;5085974;27;20391;-77
2023/06/07 02:55:59;;;;;;;4.23;1.63;;;18.00;99.90;;;;;;5077903;28;20183;-78
2023/06/07 02:58:27;;;;;;;2.10;1.90;;;18.00;99.90;;;;;;5079052;28;20174;-77
2023/06/07 03:00:54;;;;;;;2.13;1.70;;;18.10;99.90;;;;;;5077225;28;20261;-77
2023/06/07 03:03:20;;;;;;;3.80;1.80;;;18.10;99.90;;;;;;5078882;28;20777;-77
2023/06/07 03:05:48;;;;;;;2.37;1.40;;;18.20;99.90;;;;;;5076605;28;20607;-77
2023/06/07 03:08:14;;;;;;;2.23;1.67;;;18.20;99.90;;;;;;5044373;28;20301;-77
2023/06/07 03:10:40;;;;;;;4.90;1.50;;;18.30;99.90;;;;;;5059985;28;20178;-77
2023/06/07 03:13:07;;;;;;;2.50;1.70;;;18.30;99.90;;;;;;5062889;28;20273;-77
2023/06/07 03:15:33;;;;;;;2.60;1.60;;;18.40;99.90;;;;;;5060395;28;20312;-77
2023/06/07 03:18:01;;;;;;;6.87;1.80;;;18.40;99.90;;;;;;5059284;28;20272;-77
2023/06/07 03:20:28;;;;;;;3.60;1.47;;;18.50;99.90;;;;;;5094469;27;20651;-77
2023/06/07 03:22:55;;;;;;;3.07;1.57;;;18.50;99.90;;;;;;5060092;28;20220;-77
2023/06/07 03:25:22;;;;;;;4.80;1.70;;;18.50;99.90;;;;;;5077211;28;20224;-77
2023/06/07 03:27:48;;;;;;;3.57;1.67;;;18.40;99.90;;;;;;5056143;28;20237;-77
2023/06/07 03:30:14;;;;;;;3.40;1.83;;;18.50;99.90;;;;;;5075153;28;20693;-77
2023/06/07 03:32:41;;;;;;;1.93;1.70;;;18.50;99.90;;;;;;5076658;28;20742;-77
2023/06/07 03:35:07;;;;;;;2.00;1.47;;;18.50;99.90;;;;;;5076974;28;21168;-76
2023/06/07 03:37:33;;;;;;;3.43;1.73;;;18.50;99.90;;;;;;5077540;28;20255;-76
2023/06/07 03:40:00;;;;;;;3.40;1.77;;;18.50;99.90;;;;;;5072030;28;20203;-76
2023/06/07 03:42:26;;;;;;;4.30;1.90;;;18.50;99.90;;;;;;5059575;28;20258;-77
2023/06/07 03:44:52;;;;;;;3.30;1.87;;;18.50;99.90;;;;;;5059638;28;20186;-76
2023/06/07 03:47:18;;;;;;;3.43;1.80;;;18.50;99.90;;;;;;5087388;28;20221;-76
2023/06/07 03:49:44;;;;;;;2.93;1.90;;;18.50;99.90;;;;;;5076473;28;20236;-75
2023/06/07 03:52:10;;;;;;;2.30;1.80;;;18.50;99.90;;;;;;5074042;28;20182;-75
2023/06/07 03:54:37;;;;;;;2.83;1.60;;;18.50;99.90;;;;;;5075367;28;20190;-75
2023/06/07 03:57:03;;;;;;;4.20;2.10;;;18.50;99.90;;;;;;5092244;27;20308;-77
2023/06/07 03:59:32;;;;;;;2.80;1.70;;;18.50;99.90;;;;;;5058107;28;20221;-76
2023/06/07 04:02:00;;;;;;;2.53;1.80;;;18.50;99.90;;;;;;5073088;28;20810;-76
2023/06/07 04:04:27;;;;;;;5.63;1.70;;;18.60;99.90;;;;;;5074768;28;20194;-77
2023/06/07 04:06:54;;;;;;;3.77;2.07;;;18.70;99.90;;;;;;5079206;28;20555;-76
2023/06/07 04:09:21;;;;;;;2.70;1.70;;;18.70;99.90;;;;;;5076928;28;20195;-76
2023/06/07 04:11:47;;;;;;;2.67;1.50;;;18.80;99.90;;;;;;5040936;28;20260;-75
2023/06/07 04:14:13;;;;;;;3.60;2.10;;;18.90;99.90;;;;;;5084206;28;20297;-75
2023/06/07 04:16:39;;;;;;;5.40;1.77;;;18.90;99.90;;;;;;5054612;28;20762;-75
2023/06/07 04:19:06;;;;;;;3.27;1.97;;;19.00;99.90;;;;;;5057323;28;20532;-77
2023/06/07 04:21:32;;;;;;;4.00;1.87;;;19.00;99.90;;;;;;5059661;28;20220;-77
2023/06/07 04:23:58;;;;;;;4.63;2.20;;;19.10;99.90;;;;;;5075483;28;20203;-77
2023/06/07 04:26:25;;;;;;;4.80;1.90;;;19.10;99.90;;;;;;5058800;28;20186;-77
2023/06/07 04:28:56;;;;;;;3.90;2.20;;;19.20;99.90;;;;;;5099435;27;20309;-77
2023/06/07 04:31:33;;;;;;;3.27;1.97;;;19.30;99.90;;;;;;5077890;28;20197;-77
2023/06/07 04:34:01;;;;;;;5.40;2.03;;;19.30;99.90;;;;;;5066297;28;20217;-77
2023/06/07 04:36:28;;;;;;;3.60;1.77;;;19.30;99.90;;;;;;5061733;28;20289;-76
2023/06/07 04:39:03;;;;;;;3.50;2.10;;;19.40;99.90;;;;;;5087317;27;20647;-75
2023/06/07 04:41:33;;;;;;;3.50;1.90;;;19.40;99.90;;;;;;5071129;28;20298;-75
2023/06/07 04:44:05;;;;;;;3.13;1.80;;;19.50;99.90;;;;;;5059320;28;20190;-76
2023/06/07 04:46:32;;;;;;;4.83;2.07;;;19.50;99.90;;;;;;5060292;28;20201;-76
2023/06/07 04:48:58;;;;;;;2.90;1.60;;;19.60;99.90;;;;;;5042052;28;20312;-76
2023/06/07 04:51:26;;;;;;;4.13;2.33;;;19.60;99.90;;;;;;5077028;28;20187;-76
2023/06/07 04:53:58;;;;;;;2.97;1.87;;;19.70;99.90;;;;;;5076368;28;20190;-75
2023/06/07 04:56:27;;;;;;;2.17;1.80;;;19.80;99.90;;;;;;5092629;28;20788;-76
2023/06/07 04:58:55;;;;;;;2.70;1.80;;;19.80;99.90;;;;;;5078527;28;20198;-75
2023/06/07 05:01:22;;;;;;;4.53;1.70;;;19.80;99.90;;;;;;5088408;28;20810;-76
2023/06/07 05:03:57;;;;;;;4.90;1.70;;;19.80;99.90;;;;;;5077005;28;20202;-76
2023/06/07 05:06:24;;;;;;;11.87;1.90;;;19.90;99.90;;;;;;5054892;28;20245;-76
2023/06/07 05:08:51;;;;;;;7.60;1.70;;;19.90;99.90;;;;;;5059193;28;20213;-76
2023/06/07 05:11:17;;;;;;;4.63;1.70;;;19.90;99.90;;;;;;5078206;28;20181;-75
2023/06/07 05:13:43;;;;;;;4.47;1.70;;;20.00;99.90;;;;;;5056301;28;20630;-76
2023/06/07 05:16:16;;;;;;;1.93;1.37;;;20.00;99.90;;;;;;5075271;28;20194;-76
2023/06/07 05:18:46;;;;;;;4.37;1.67;;;20.10;99.90;;;;;;5078123;28;20193;-76
2023/06/07 05:21:14;;;;;;;2.50;1.50;;;20.20;99.90;;;;;;5075193;28;20190;-75
2023/06/07 05:23:44;;;;;;;3.73;1.50;;;20.20;99.90;;;;;;5055602;28;21271;-75
2023/06/07 05:26:10;;;;;;;3.30;1.67;;;20.30;99.90;;;;;;5056173;28;20217;-75
2023/06/07 05:28:37;;;;;;;4.83;1.77;;;20.30;99.90;;;;;;5077348;28;20824;-75
2023/06/07 05:31:03;;;;;;;2.17;1.50;;;20.40;99.90;;;;;;5072713;28;20182;-76
2023/06/07 05:33:30;;;;;;;4.40;1.50;;;20.50;99.90;;;;;;5078071;28;20206;-77
2023/06/07 05:35:58;;;;;;;4.80;1.70;;;20.60;99.90;;;;;;5047589;28;20217;-76
2023/06/07 05:38:24;;;;;;;4.10;1.77;;;20.60;99.90;;;;;;5079795;28;20202;-75
2023/06/07 05:40:50;;;;;;;3.27;1.47;;;20.70;99.90;;;;;;5046109;28;20579;-76
2023/06/07 05:43:18;;;;;;;2.53;1.50;;;20.70;99.90;;;;;;5063526;28;20202;-76
2023/06/07 05:45:44;;;;;;;1.83;1.40;;;20.80;99.90;;;;;;5073327;28;20190;-75
2023/06/07 05:48:11;;;;;;;2.53;1.63;;;21.00;99.90;;;;;;5058587;28;20237;-75
2023/06/07 05:50:37;;;;;;;2.80;1.73;;;21.20;99.90;;;;;;5075303;28;20190;-76
2023/06/07 05:53:03;;;;;;;4.13;1.60;;;21.30;99.90;;;;;;5081129;28;20182;-76
2023/06/07 05:55:29;;;;;;;6.03;1.50;;;21.40;99.90;;;;;;5102356;27;20189;-77
2023/06/07 05:57:57;;;;;;;1.67;1.23;;;21.50;99.90;;;;;;5063188;28;20194;-77
2023/06/07 06:00:24;;;;;;;2.13;1.50;;;21.60;99.90;;;;;;5081928;28;20266;-76
2023/06/07 06:02:52;;;;;;;7.10;1.50;;;21.80;99.90;;;;;;5079405;28;20186;-76
2023/06/07 06:05:27;;;;;;;2.93;1.47;;;21.90;99.90;;;;;;5084178;28;20218;-77
2023/06/07 06:07:55;;;;;;;3.95;1.50;;;22.00;99.90;;;;;;5081802;28;21032;-76
2023/06/07 06:10:22;;;;;;;2.20;1.50;;;22.00;99.90;;;;;;5096958;27;20194;-76
2023/06/07 06:12:48;;;;;;;2.10;1.30;;;22.10;99.90;;;;;;5078571;28;20182;-77
2023/06/07 06:15:14;;;;;;;3.88;1.50;;;22.20;99.90;;;;;;5078157;28;20833;-76
2023/06/07 06:17:41;;;;;;;5.47;1.67;;;22.30;99.90;;;;;;5079395;28;20270;-76
2023/06/07 06:20:08;;;;;;;5.30;1.70;;;22.50;99.90;;;;;;5062910;28;20186;-77
2023/06/07 06:22:35;;;;;;;5.40;1.65;;;22.40;99.90;;;;;;5065104;28;20280;-76
2023/06/07 06:25:02;;;;;;;4.75;1.50;;;22.40;99.90;;;;;;5061649;28;20190;-76
2023/06/07 06:27:28;;;;;;;5.07;1.60;;;22.60;99.90;;;;;;5080477;28;20221;-77
2023/06/07 06:29:55;;;;;;;4.97;1.70;;;22.80;99.90;;;;;;5081231;28;20190;-77
2023/06/07 06:32:21;;;;;;;8.57;1.52;;;22.90;99.90;;;;;;5050043;28;20178;-77
2023/06/07 06:34:48;;;;;;;5.85;1.50;;;23.00;99.90;;;;;;5078736;28;20739;-77
2023/06/07 06:37:14;;;;;;;2.50;1.60;;;23.20;99.90;;;;;;5099590;27;20906;-76
2023/06/07 06:39:40;;;;;;;2.38;1.23;;;23.20;99.90;;;;;;5062916;28;20178;-74
2023/06/07 06:42:07;;;;;;;5.72;1.40;;;23.40;99.90;;;;;;5056845;28;20190;-76
2023/06/07 06:44:33;;;;;;;3.20;1.48;;;23.40;99.90;;;;;;5074910;28;20233;-77
2023/06/07 06:47:00;;;;;;;9.48;1.70;;;23.40;99.90;;;;;;5077829;28;20186;-76
2023/06/07 06:49:26;;;;;;;1.70;1.30;;;23.60;99.90;;;;;;5083976;28;20896;-76
2023/06/07 06:51:53;;;;;;;2.22;1.38;;;23.70;99.90;;;;;;5079597;28;20555;-76
2023/06/07 06:54:20;;;;;;;2.65;1.42;;;23.70;99.90;;;;;;5078980;28;20183;-75
2023/06/07 06:56:47;;;;;;;1.55;1.00;;;23.80;99.90;;;;;;5081949;28;20193;-76
2023/06/07 06:59:13;;;;;;;1.92;1.52;;;23.80;99.90;;;;;;5059242;28;20186;-75
2023/06/07 07:01:45;;;;;;;2.85;1.23;;;23.80;99.90;;;;;;5094321;27;20643;-77
2023/06/07 07:04:13;;;;;;;3.88;1.60;;;23.90;99.90;;;;;;5056707;28;20663;-76
2023/06/07 07:06:40;;;;;;;2.25;1.17;;;24.10;99.90;;;;;;5076140;28;20194;-76
2023/06/07 07:09:09;;;;;;;3.83;1.30;;;24.10;99.90;;;;;;5078005;28;20224;-76
2023/06/07 07:11:36;;;;;;;1.70;1.23;;;24.20;99.90;;;;;;5046955;28;20667;-77
2023/06/07 07:14:03;;;;;;;2.08;1.40;;;24.30;99.90;;;;;;5048400;28;20194;-76
2023/06/07 07:16:31;;;;;;;2.20;1.05;;;24.40;99.90;;;;;;5061851;28;20182;-76
2023/06/07 07:18:57;;;;;;;5.25;1.60;;;24.50;99.90;;;;;;5065028;28;20324;-76
2023/06/07 07:21:24;;;;;;;2.05;1.50;;;24.70;99.90;;;;;;5083597;28;20190;-76
2023/06/07 07:23:50;;;;;;;6.50;2.13;;;24.70;99.90;;;;;;5060284;28;21285;-76
2023/06/07 07:26:17;;;;;;;2.10;1.23;;;24.80;99.90;;;;;;5081715;28;20531;-77
2023/06/07 07:28:44;;;;;;;2.20;1.45;;;24.90;99.90;;;;;;5099926;27;20348;-75
2023/06/07 07:31:10;;;;;;;4.28;1.80;;;25.00;99.90;;;;;;5061063;28;20174;-77
2023/06/07 07:33:38;;;;;;;3.45;1.70;;;25.00;99.90;;;;;;5065570;28;20265;-77
2023/06/07 07:36:05;;;;;;;2.67;1.73;;;25.00;99.90;;;;;;5080590;28;20194;-76
2023/06/07 07:38:37;;;;;;;4.22;1.80;;;25.10;99.90;;;;;;5078143;28;20190;-76
2023/06/07 07:41:07;;;;;;;3.15;1.90;;;25.20;99.90;;;;;;5083689;28;20212;-77
2023/06/07 07:43:33;;;;;;;1.77;1.60;;;25.20;99.90;;;;;;5075514;28;20833;-77
2023/06/07 07:46:00;;;;;;;5.68;1.73;;;25.30;99.90;;;;;;5078374;28;20605;-76
2023/06/07 07:48:26;;;;;;;2.47;1.70;;;25.40;99.90;;;;;;5078381;28;20606;-77
2023/06/07 07:50:53;;;;;;;3.90;1.88;;;25.50;99.90;;;;;;5062111;28;20614;-76
2023/06/07 07:53:19;;;;;;;5.88;1.95;;;25.50;99.90;;;;;;5063420;28;20189;-77
2023/06/07 07:55:46;;;;;;;3.67;1.83;;;25.60;99.90;;;;;;5074945;28;20599;-77
2023/06/07 07:58:12;;;;;;;2.60;1.70;;;25.70;99.90;;;;;;5059979;28;20264;-77
2023/06/07 08:00:41;;;;;;;3.50;2.10;;;25.70;99.90;;;;;;5063215;28;20193;-77
2023/06/07 08:03:08;;;;;;;2.55;2.10;;;25.80;99.90;;;;;;5091553;27;20709;-77
2023/06/07 08:05:34;;;;;;;3.13;2.17;;;26.00;99.90;;;;;;5048455;28;20239;-77
2023/06/07 08:08:00;;;;;;;2.45;2.05;;;26.00;99.90;;;;;;5083081;28;20244;-77
2023/06/07 08:10:27;;;;;;;3.00;2.10;;;26.20;99.90;;;;;;5061574;28;20193;-76
2023/06/07 08:12:53;;;;;;;4.68;2.03;;;26.20;99.90;;;;;;5081060;28;20196;-77
2023/06/07 08:15:19;;;;;;;3.10;2.08;;;26.30;99.90;;;;;;5062417;28;20782;-77
2023/06/07 08:17:45;;;;;;;3.60;2.00;;;26.40;99.90;;;;;;5060777;28;20271;-77
2023/06/07 08:20:12;;;;;;;3.85;2.00;;;26.40;99.90;;;;;;5060204;28;20620;-78
2023/06/07 08:22:38;;;;;;;3.67;2.00;;;26.50;99.90;;;;;;5078568;28;20272;-77
2023/06/07 08:25:07;;;;;;;3.13;2.00;;;26.60;99.90;;;;;;5076604;28;20696;-78
2023/06/07 08:27:33;;;;;;;3.63;2.00;;;26.70;99.90;;;;;;5078469;28;20198;-78
2023/06/07 08:29:59;;;;;;;4.55;2.25;;;26.70;99.90;;;;;;5080987;28;20297;-77
2023/06/07 08:32:25;;;;;;;3.78;1.90;;;26.90;99.90;;;;;;5077466;28;20182;-77
2023/06/07 08:34:52;;;;;;;4.03;2.17;;;27.00;99.90;;;;;;5075497;28;20186;-77
2023/06/07 08:37:18;;;;;;;5.85;2.03;;;27.00;99.90;;;;;;5047077;28;20194;-76
2023/06/07 08:39:44;;;;;;;2.95;2.13;;;27.00;99.90;;;;;;5075551;28;20278;-76
2023/06/07 08:42:10;;;;;;;5.05;2.00;;;27.20;99.90;;;;;;5078768;28;20182;-77
2023/06/07 08:44:38;;;;;;;2.53;2.00;;;27.20;99.90;;;;;;5083062;28;20182;-77
2023/06/07 08:47:06;;;;;;;4.30;2.00;;;27.20;99.90;;;;;;5053487;28;20194;-77
2023/06/07 08:49:33;;;;;;;2.97;1.70;;;27.40;99.90;;;;;;5064525;28;20606;-77
2023/06/07 08:52:03;;;;;;;3.03;1.50;;;27.50;99.90;;;;;;5061661;28;20227;-77
2023/06/07 08:54:31;;;;;;;3.33;1.70;;;27.50;99.90;;;;;;5077278;28;20206;-77
2023/06/07 08:56:59;;;;;;;3.67;1.73;;;27.60;99.90;;;;;;5078106;28;20625;-77
2023/06/07 08:59:26;;;;;;;3.13;1.65;;;27.70;99.90;;;;;;5079159;28;20174;-77
2023/06/07 09:01:54;;;;;;;2.38;1.80;;;27.70;99.90;;;;;;5078363;28;20694;-76
2023/06/07 09:04:21;;;;;;;2.10;1.58;;;27.70;99.90;;;;;;5076172;28;20534;-76
2023/06/07 09:06:47;;;;;;;3.03;1.80;;;27.70;99.90;;;;;;5073561;28;20881;-77
2023/06/07 09:09:14;;;;;;;4.28;1.90;;;27.80;99.90;;;;;;5076520;28;20216;-75
2023/06/07 09:11:40;;;;;;;3.00;2.00;;;27.90;99.90;;;;;;5077774;28;20205;-75
2023/06/07 09:14:07;;;;;;;2.45;1.90;;;28.00;99.90;;;;;;5079944;28;20255;-74
2023/06/07 09:16:54;;;;;;;4.10;1.95;;;28.10;99.90;;;;;;5071626;28;20659;-74
2023/06/07 09:19:36;;;;;;;3.78;1.83;;;28.10;99.90;;;;;;5037101;28;20408;-75
2023/06/07 09:22:04;;;;;;;2.97;1.98;;;28.30;99.90;;;;;;5063262;28;20794;-74
2023/06/07 09:24:32;;;;;;;2.67;1.70;;;28.50;99.90;;;;;;5060100;28;20194;-74
2023/06/07 09:27:01;;;;;;;2.50;1.65;;;28.70;99.90;;;;;;5077329;28;20194;-75
2023/06/07 09:29:29;;;;;;;3.25;1.50;;;28.70;99.90;;;;;;5064392;28;20182;-75
2023/06/07 09:32:21;;;;;;;2.83;1.80;;;28.80;99.90;;;;;;5097670;27;20731;-75
2023/06/07 09:34:50;;;;;;;3.60;1.63;;;28.80;99.90;;;;;;5077492;28;20562;-75
2023/06/07 09:37:20;;;;;;;2.88;1.52;;;28.80;99.90;;;;;;5081797;28;20189;-75
2023/06/07 09:39:52;;;;;;;3.72;2.10;;;28.60;99.90;;;;;;5064172;28;20201;-74
2023/06/07 09:42:19;;;;;;;3.95;2.10;;;28.70;99.90;;;;;;5062455;28;20782;-74
2023/06/07 09:44:46;;;;;;;2.40;1.80;;;28.80;99.90;;;;;;5049280;28;20579;-74
2023/06/07 09:47:23;;;;;;;7.90;2.67;;;28.70;99.90;;;;;;5065735;28;22304;-74
2023/06/07 09:49:54;;;;;;;3.55;2.60;;;28.60;99.90;;;;;;5069055;28;20181;-74
2023/06/07 09:52:21;;;;;;;5.10;2.38;;;28.50;99.90;;;;;;5081849;28;20289;-75
2023/06/07 09:54:48;;;;;;;13.40;2.60;;;28.60;99.90;;;;;;5070526;28;20182;-73
2023/06/07 09:57:26;;;;;;;4.18;2.42;;;28.80;99.90;;;;;;5067986;28;20190;-74
2023/06/07 10:00:23;;;;;;;8.65;3.13;;;28.80;99.90;;;;;;5064930;28;20184;-74
2023/06/07 10:02:50;;;;;;;7.57;2.83;;;28.80;99.90;;;;;;5065089;28;20320;-74
2023/06/07 10:05:21;;;;;;;3.15;2.33;;;28.90;99.90;;;;;;5061821;28;20285;-73
2023/06/07 10:07:50;;;;;;;3.65;2.50;;;28.90;99.90;;;;;;5099530;27;20377;-74
2023/06/07 10:10:21;;;;;;;7.13;2.80;;;29.00;99.90;;;;;;5066964;28;20228;-73
2023/06/07 10:12:51;;;;;;;3.65;2.33;;;29.00;99.90;;;;;;5079314;28;20691;-73
2023/06/07 10:15:25;;;;;;;4.78;2.60;;;29.00;99.90;;;;;;5069043;28;20178;-73
2023/06/07 10:18:24;;;;;;;5.63;3.00;;;28.90;99.90;;;;;;5062932;28;20187;-73
2023/06/07 10:21:15;;;;;;;4.32;2.85;;;29.00;99.90;;;;;;5061599;28;20195;-73
2023/06/07 10:23:57;;;;;;;4.82;2.55;;;29.00;99.90;;;;;;5080743;28;20693;-73
2023/06/07 10:26:35;;;;;;;4.18;3.05;;;28.90;99.90;;;;;;5099703;27;20236;-73
2023/06/07 10:29:08;;;;;;;4.57;2.90;;;28.90;99.90;;;;;;5080663;28;20673;-73
2023/06/07 10:31:45;;;;;;;8.25;2.72;;;29.00;99.90;;;;;;5062309;28;20194;-73
2023/06/07 10:34:14;;;;;;;3.03;2.58;;;29.00;99.90;;;;;;5068437;28;20205;-74
2023/06/07 10:36:42;;;;;;;3.33;2.50;;;29.00;99.90;;;;;;5064250;28;20786;-73
2023/06/07 10:39:11;;;;;;;7.38;2.70;;;29.00;99.90;;;;;;5064969;28;20418;-73
2023/06/07 10:41:39;;;;;;;4.53;2.25;;;28.90;99.90;;;;;;5044488;28;20289;-74
2023/06/07 10:44:06;;;;;;;4.55;2.28;;;28.90;99.90;;;;;;5065794;28;20225;-74
2023/06/07 10:46:33;;;;;;;3.65;2.50;;;28.80;99.90;;;;;;5058781;28;20174;-73
2023/06/07 10:48:59;;;;;;;3.38;2.00;;;28.80;99.90;;;;;;5091259;28;20278;-74
2023/06/07 10:51:48;;;;;;;3.95;2.50;;;28.80;99.90;;;;;;5098676;27;20186;-74
2023/06/07 10:54:30;;;;;;;2.63;1.80;;;28.80;99.90;;;;;;5046327;28;20734;-73
2023/06/07 10:56:59;;;;;;;3.53;2.20;;;28.70;99.90;;;;;;5074447;28;20261;-74
2023/06/07 10:59:26;;;;;;;3.20;2.08;;;28.60;99.90;;;;;;5081869;28;20190;-74
2023/06/07 11:01:54;;;;;;;2.95;2.30;;;28.60;99.90;;;;;;5068866;28;20269;-74
2023/06/07 11:04:33;;;;;;;3.22;2.35;;;28.50;99.90;;;;;;5081844;28;20189;-74
2023/06/07 11:07:25;;;;;;;3.90;2.85;;;28.40;99.90;;;;;;5060772;28;20178;-73
2023/06/07 11:10:04;;;;;;;6.07;2.63;;;28.40;99.90;;;;;;5085019;27;20254;-74
2023/06/07 11:12:44;;;;;;;5.35;2.45;;;28.30;99.90;;;;;;5078766;28;20854;-74
2023/06/07 11:15:25;;;;;;;4.85;2.40;;;28.40;99.90;;;;;;5065697;28;20186;-74
2023/06/07 11:17:56;;;;;;;6.18;2.72;;;28.50;99.90;;;;;;5062798;28;20295;-74
2023/06/07 11:20:38;;;;;;;7.00;2.30;;;28.50;99.90;;;;;;5050472;28;20174;-74
2023/06/07 11:23:30;;;;;;;3.42;2.47;;;28.60;99.90;;;;;;5083062;28;20903;-74
2023/06/07 11:26:11;;;;;;;6.32;2.47;;;28.50;99.90;;;;;;5043475;28;20277;-74
2023/06/07 11:28:41;;;;;;;4.50;2.30;;;28.60;99.90;;;;;;5059657;28;20216;-74
2023/06/07 11:31:13;;;;;;;4.15;2.55;;;28.50;99.90;;;;;;5058964;28;20555;-74
2023/06/07 11:33:43;;;;;;;11.52;2.60;;;28.50;99.90;;;;;;5059975;28;20194;-74
2023/06/07 11:36:10;;;;;;;5.55;3.05;;;28.60;99.90;;;;;;5078083;28;20194;-74
2023/06/07 11:38:38;;;;;;;5.43;3.20;;;28.60;99.90;;;;;;5093460;27;20265;-74
2023/06/07 11:41:06;;;;;;;5.40;3.08;;;28.60;99.90;;;;;;5075226;28;20993;-74
2023/06/07 11:43:33;;;;;;;3.80;3.08;;;28.60;99.90;;;;;;5080910;28;20908;-74
2023/06/07 11:46:00;;;;;;;3.40;3.05;;;28.60;99.90;;;;;;5074093;28;20202;-74
2023/06/07 11:48:28;;;;;;;6.30;3.00;;;28.60;99.90;;;;;;5066278;28;20210;-74
2023/06/07 11:50:54;;;;;;;4.38;2.90;;;28.60;99.90;;;;;;5076356;28;20214;-74
2023/06/07 11:53:21;;;;;;;4.75;3.08;;;28.60;99.90;;;;;;5077173;28;20655;-74
2023/06/07 11:55:48;;;;;;;3.92;2.70;;;28.70;99.90;;;;;;5076155;28;20272;-74
2023/06/07 11:58:15;;;;;;;6.53;3.45;;;28.60;99.90;;;;;;5054113;28;20194;-74
2023/06/07 12:00:44;;;;;;;3.95;3.17;;;28.60;99.90;;;;;;5077520;28;20186;-74
2023/06/07 12:03:12;;;;;;;5.03;2.90;;;28.50;99.90;;;;;;5077740;28;20649;-74
2023/06/07 12:05:38;;;;;;;4.47;2.80;;;28.60;99.90;;;;;;5052360;28;20277;-74
2023/06/07 12:08:15;;;;;;;4.88;2.88;;;28.70;99.90;;;;;;5070431;28;20244;-74
2023/06/07 12:10:41;;;;;;;3.65;2.60;;;28.70;99.90;;;;;;5084099;28;20186;-74
2023/06/07 12:13:15;;;;;;;2.63;1.85;;;28.70;99.90;;;;;;5089238;27;20289;-74
2023/06/07 12:15:58;;;;;;;3.42;2.00;;;28.80;99.90;;;;;;5072964;28;20189;-74
2023/06/07 12:18:26;;;;;;;8.88;2.17;;;28.70;99.90;;;;;;5085594;28;20186;-74
2023/06/07 12:21:17;;;;;;;8.43;2.88;;;28.80;99.90;;;;;;5074878;28;20228;-74
2023/06/07 12:23:53;;;;;;;2.90;2.33;;;28.80;99.90;;;;;;5044845;28;20945;-74
2023/06/07 12:26:27;;;;;;;3.03;2.15;;;28.80;99.90;;;;;;5087929;28;20513;-74
2023/06/07 12:28:54;;;;;;;4.05;2.20;;;28.90;99.90;;;;;;5084195;27;20222;-74
2023/06/07 12:31:26;;;;;;;5.20;1.73;;;28.90;99.90;;;;;;5069050;28;20286;-74
2023/06/07 12:34:13;;;;;;;4.90;1.95;;;28.90;99.90;;;;;;5054078;28;20283;-74
2023/06/07 12:36:40;;;;;;;2.88;1.77;;;29.10;99.90;;;;;;5070646;28;20179;-75
2023/06/07 12:39:09;;;;;;;2.42;1.58;;;29.10;99.90;;;;;;5050845;28;20190;-75
2023/06/07 12:41:37;;;;;;;2.80;1.80;;;29.00;99.90;;;;;;5057910;28;20247;-75
2023/06/07 12:44:13;;;;;;;3.40;1.80;;;28.90;99.90;;;;;;5088701;28;20194;-74
2023/06/07 12:46:39;;;;;;;2.67;2.00;;;29.10;99.90;;;;;;5064974;28;20234;-75
2023/06/07 12:49:06;;;;;;;3.58;1.55;;;29.00;99.90;;;;;;5072334;28;20881;-75
2023/06/07 12:51:33;;;;;;;3.30;1.60;;;29.10;99.90;;;;;;5077466;28;20202;-75
2023/06/07 12:54:00;;;;;;;3.28;1.83;;;29.00;99.90;;;;;;5062383;28;20197;-75
2023/06/07 12:56:26;;;;;;;3.42;1.83;;;29.00;99.90;;;;;;5074682;28;20840;-74